Time;durP1;ratioP1;P1;durP2;ratioP2;P2;SDS_P1;SDS_P2;PMS_P1;PMS_P2;Temp;Humidity;BMP_temperature;BMP_pressure;BME280_temperature;BME280_humidity;BME280_pressure;Samples;Min_cycle;Max_cycle;Signal;HPM_P1;HPM_P2
2023/06/13 00:00:05;;;;;;;12.90;5.68;;;;;;;19.16;76.74;94709.38;5036757;28;20035;-81
2023/06/13 00:02:31;;;;;;;8.57;5.82;;;;;;;19.49;76.26;94758.41;5049584;28;20585;-81
2023/06/13 00:04:57;;;;;;;8.13;5.25;;;;;;;19.30;76.22;94719.78;5030812;28;20060;-81
2023/06/13 00:07:23;;;;;;;11.95;6.25;;;;;;;19.31;76.56;94718.66;5049450;28;20269;-81
2023/06/13 00:09:49;;;;;;;12.02;6.32;;;;;;;19.21;76.40;94703.78;5049010;28;20060;-81
2023/06/13 00:12:14;;;;;;;7.40;5.40;;;;;;;19.34;76.33;94720.66;5049166;28;20114;-81
2023/06/13 00:14:40;;;;;;;9.57;5.55;;;;;;;19.15;76.21;94694.38;5049259;28;20029;-81
2023/06/13 00:17:06;;;;;;;11.73;5.13;;;;;;;19.33;76.20;94711.81;5049160;28;20029;-81
2023/06/13 00:19:31;;;;;;;10.25;6.00;;;;;;;19.26;76.23;94704.31;5049016;28;20545;-81
2023/06/13 00:21:58;;;;;;;11.40;5.95;;;;;;;19.37;75.33;94736.13;5043837;28;20040;-81
2023/06/13 00:24:23;;;;;;;14.13;6.40;;;;;;;19.28;75.56;94709.38;5048688;28;20036;-81
2023/06/13 00:26:49;;;;;;;14.60;6.82;;;;;;;19.43;75.07;94732.06;5048779;28;20091;-81
2023/06/13 00:29:14;;;;;;;12.50;6.60;;;;;;;19.04;74.88;94682.53;5049110;28;20033;-81
2023/06/13 00:31:40;;;;;;;10.55;6.20;;;;;;;19.36;75.10;94735.34;5048894;28;20068;-81
2023/06/13 00:34:05;;;;;;;9.00;6.82;;;;;;;19.35;75.90;94731.09;5030750;28;20476;-81
2023/06/13 00:36:33;;;;;;;12.85;7.03;;;;;;;19.31;75.89;94732.88;5030592;28;20078;-80
2023/06/13 00:38:59;;;;;;;10.88;6.90;;;;;;;19.34;75.61;94740.28;5043727;28;20087;-80
2023/06/13 00:41:25;;;;;;;8.43;6.38;;;;;;;19.02;75.22;94679.38;5031099;28;20029;-80
2023/06/13 00:43:50;;;;;;;11.15;6.95;;;;;;;19.19;75.13;94719.47;5048268;28;20029;-81
2023/06/13 00:46:28;;;;;;;11.88;7.25;;;;;;;19.10;75.46;94702.66;5025447;28;20040;-81
2023/06/13 00:48:56;;;;;;;9.45;7.03;;;;;;;19.16;75.49;94715.53;5022605;28;20075;-81
2023/06/13 00:51:23;;;;;;;15.38;7.57;;;;;;;18.70;75.85;94646.16;5049813;28;20025;-81
2023/06/13 00:53:50;;;;;;;11.45;7.53;;;;;;;18.94;75.38;94699.88;5034747;28;20036;-81
2023/06/13 00:56:16;;;;;;;10.23;6.82;;;;;;;18.92;76.01;94690.63;5052955;28;20345;-81
2023/06/13 00:58:41;;;;;;;14.88;7.65;;;;;;;19.22;75.86;94722.25;5052630;28;20139;-81
2023/06/13 01:01:08;;;;;;;13.80;6.70;;;;;;;19.23;76.46;94726.50;5052667;28;20035;-81
2023/06/13 01:03:35;;;;;;;17.67;6.97;;;;;;;18.90;76.37;94666.75;5052484;28;20059;-81
2023/06/13 01:06:01;;;;;;;12.80;6.55;;;;;;;19.23;75.96;94723.81;5052757;28;20495;-81
2023/06/13 01:08:28;;;;;;;10.25;6.78;;;;;;;18.55;76.49;94617.28;5018027;28;20495;-80
2023/06/13 01:11:06;;;;;;;11.15;6.72;;;;;;;18.77;76.55;94665.19;5052779;28;20044;-81
2023/06/13 01:13:50;;;;;;;8.88;6.25;;;;;;;19.20;76.35;94719.13;5052103;28;20033;-80
2023/06/13 01:16:25;;;;;;;13.02;6.93;;;;;;;19.21;76.17;94722.59;5052315;28;20617;-81
2023/06/13 01:18:52;;;;;;;15.55;7.07;;;;;;;19.20;76.38;94726.41;5034217;28;20456;-81
2023/06/13 01:21:19;;;;;;;11.07;6.15;;;;;;;19.19;76.34;94728.31;5052368;28;20033;-81
2023/06/13 01:24:00;;;;;;;13.43;6.28;;;;;;;18.55;75.94;94623.44;5051612;28;20025;-81
2023/06/13 01:26:56;;;;;;;13.02;7.25;;;;;;;19.17;76.46;94727.06;5030623;28;20029;-81
2023/06/13 01:29:22;;;;;;;9.05;6.38;;;;;;;18.96;76.24;94697.66;5021207;28;20530;-81
2023/06/13 01:31:56;;;;;;;12.73;6.78;;;;;;;18.99;75.96;94699.69;5034364;28;20025;-81
2023/06/13 01:34:24;;;;;;;10.75;6.20;;;;;;;19.16;75.93;94726.28;5044173;28;20060;-81
2023/06/13 01:36:50;;;;;;;10.43;6.78;;;;;;;19.06;75.16;94726.75;5045173;28;20052;-81
2023/06/13 01:39:15;;;;;;;8.00;6.07;;;;;;;18.74;74.69;94687.38;5051927;28;20209;-81
2023/06/13 01:41:41;;;;;;;11.98;6.68;;;;;;;18.74;74.88;94688.16;5036674;28;20112;-81
2023/06/13 01:44:06;;;;;;;9.00;6.07;;;;;;;19.00;75.61;94728.09;5031005;28;20043;-81
2023/06/13 01:47:07;;;;;;;8.02;6.45;;;;;;;18.99;76.52;94731.13;5051988;28;20060;-81
2023/06/13 01:49:51;;;;;;;12.05;6.28;;;;;;;18.97;76.84;94736.84;5027980;28;20045;-81
2023/06/13 01:52:55;;;;;;;8.95;6.82;;;;;;;18.96;76.49;94727.22;5034119;28;20025;-81
2023/06/13 01:55:27;;;;;;;12.20;6.57;;;;;;;18.95;76.10;94728.31;5030119;28;20071;-79
2023/06/13 01:58:02;;;;;;;7.75;6.15;;;;;;;18.92;76.34;94730.91;5030207;28;20063;-78
2023/06/13 02:00:28;;;;;;;14.13;7.07;;;;;;;18.69;76.37;94703.72;5033987;28;20090;-78
2023/06/13 02:02:55;;;;;;;9.65;5.85;;;;;;;18.83;76.05;94728.34;5051018;28;20076;-78
2023/06/13 02:05:20;;;;;;;12.93;6.75;;;;;;;18.42;75.46;94667.53;5028888;28;20060;-78
2023/06/13 02:07:46;;;;;;;9.63;7.05;;;;;;;18.62;75.89;94711.53;5016157;28;20124;-78
2023/06/13 02:10:11;;;;;;;12.40;6.82;;;;;;;18.56;76.62;94696.72;5051740;28;20028;-78
2023/06/13 02:12:38;;;;;;;16.50;6.90;;;;;;;18.72;75.99;94725.31;5051531;28;20040;-78
2023/06/13 02:15:04;;;;;;;14.02;6.63;;;;;;;18.43;75.83;94677.94;5052279;28;20041;-78
2023/06/13 02:17:30;;;;;;;12.43;6.88;;;;;;;18.57;76.07;94701.78;5051563;28;20533;-78
2023/06/13 02:19:55;;;;;;;9.73;6.57;;;;;;;18.39;75.58;94687.75;5051536;28;20443;-79
2023/06/13 02:22:21;;;;;;;13.38;7.35;;;;;;;18.25;76.15;94665.03;5052035;28;20083;-78
2023/06/13 02:24:47;;;;;;;11.00;7.10;;;;;;;18.21;76.47;94656.88;5033242;28;20037;-78
2023/06/13 02:27:12;;;;;;;10.57;7.18;;;;;;;18.47;76.59;94704.88;5048346;28;20083;-78
2023/06/13 02:29:38;;;;;;;9.27;7.55;;;;;;;18.06;76.76;94634.16;5052032;28;20045;-78
2023/06/13 02:32:05;;;;;;;14.80;8.05;;;;;;;18.29;77.51;94680.16;5048586;28;20031;-78
2023/06/13 02:34:30;;;;;;;9.85;7.72;;;;;;;17.76;77.17;94597.13;5034058;28;20051;-78
2023/06/13 02:36:55;;;;;;;9.35;6.80;;;;;;;18.40;76.60;94696.59;5034362;28;20475;-78
2023/06/13 02:39:22;;;;;;;16.58;7.07;;;;;;;18.59;76.59;94733.69;5051817;28;20036;-78
2023/06/13 02:41:48;;;;;;;16.50;7.70;;;;;;;18.47;76.84;94718.31;5032953;28;20452;-78
2023/06/13 02:44:13;;;;;;;11.55;7.57;;;;;;;18.46;76.39;94728.25;5033404;28;20032;-79
2023/06/13 02:46:38;;;;;;;11.23;7.40;;;;;;;18.30;76.25;94695.16;5031602;28;20040;-78
2023/06/13 02:49:04;;;;;;;9.55;7.28;;;;;;;18.28;75.84;94702.75;5033528;28;20025;-78
2023/06/13 02:51:30;;;;;;;12.57;7.00;;;;;;;18.49;75.67;94730.28;5050712;28;20116;-78
2023/06/13 02:53:55;;;;;;;16.58;6.90;;;;;;;18.18;75.83;94692.44;5041681;28;20033;-78
2023/06/13 02:56:21;;;;;;;11.88;6.38;;;;;;;18.12;75.88;94701.81;5041802;28;20108;-78
2023/06/13 02:58:46;;;;;;;14.63;7.78;;;;;;;18.04;76.31;94682.00;5033410;28;20048;-78
2023/06/13 03:01:12;;;;;;;10.55;6.93;;;;;;;18.42;76.59;94740.78;5050731;28;20033;-78
2023/06/13 03:03:37;;;;;;;14.63;7.30;;;;;;;18.29;76.63;94719.63;5050350;28;20043;-78
2023/06/13 03:06:03;;;;;;;14.30;7.43;;;;;;;18.31;76.51;94726.22;5050508;28;20061;-78
2023/06/13 03:08:29;;;;;;;8.75;6.60;;;;;;;18.13;76.51;94704.16;5033033;28;20041;-78
2023/06/13 03:10:54;;;;;;;12.55;7.07;;;;;;;18.13;76.01;94698.03;5050437;28;20056;-79
2023/06/13 03:13:20;;;;;;;13.15;8.23;;;;;;;18.00;75.90;94686.44;5050052;28;20130;-78
2023/06/13 03:15:47;;;;;;;15.90;8.82;;;;;;;18.41;76.37;94741.13;5050561;28;20032;-78
2023/06/13 03:18:17;;;;;;;14.43;8.93;;;;;;;18.22;75.92;94738.19;5031175;28;20044;-78
2023/06/13 03:20:45;;;;;;;11.25;8.57;;;;;;;17.92;75.57;94719.53;5032214;28;20308;-78
2023/06/13 03:23:12;;;;;;;14.23;8.98;;;;;;;18.01;76.02;94738.22;5031501;28;20056;-78
2023/06/13 03:25:41;;;;;;;19.13;9.13;;;;;;;17.94;76.00;94719.19;5049804;28;20492;-78
2023/06/13 03:28:07;;;;;;;15.10;8.80;;;;;;;18.19;76.14;94758.41;5050914;28;20032;-78
2023/06/13 03:30:33;;;;;;;15.52;9.38;;;;;;;18.21;76.37;94750.81;5050290;28;20037;-79
2023/06/13 03:32:59;;;;;;;21.40;10.15;;;;;;;17.81;76.14;94707.66;5029348;28;20033;-78
2023/06/13 03:35:24;;;;;;;22.10;9.85;;;;;;;18.03;76.18;94726.06;5032458;28;20415;-78
2023/06/13 03:37:50;;;;;;;27.40;10.40;;;;;;;18.19;76.27;94745.00;5050564;28;20432;-78
2023/06/13 03:40:15;;;;;;;17.77;10.10;;;;;;;17.89;76.60;94679.16;5029174;28;20043;-78
2023/06/13 03:42:41;;;;;;;19.48;10.07;;;;;;;18.00;76.17;94707.16;5049355;28;20187;-78
2023/06/13 03:45:07;;;;;;;17.55;10.57;;;;;;;18.06;75.91;94713.88;5032378;28;20037;-79
2023/06/13 03:47:32;;;;;;;19.38;11.55;;;;;;;17.78;76.04;94678.00;5033123;28;20491;-78
2023/06/13 03:49:57;;;;;;;22.35;11.45;;;;;;;17.98;75.80;94707.50;5030402;28;20504;-78
2023/06/13 03:52:23;;;;;;;21.05;11.30;;;;;;;17.95;75.88;94710.03;5048061;28;20029;-77
2023/06/13 03:54:48;;;;;;;17.77;11.50;;;;;;;18.05;76.23;94728.41;5028044;28;20044;-78
2023/06/13 03:57:14;;;;;;;22.15;11.45;;;;;;;18.15;76.35;94746.78;5012389;28;20057;-79
2023/06/13 03:59:40;;;;;;;17.15;11.75;;;;;;;18.25;76.03;94767.03;5011684;28;20025;-79
2023/06/13 04:02:06;;;;;;;23.55;12.05;;;;;;;17.95;76.06;94713.50;5017555;28;20035;-80
2023/06/13 04:04:32;;;;;;;26.92;11.93;;;;;;;18.29;76.23;94762.59;5030982;28;20037;-79
2023/06/13 04:06:58;;;;;;;18.23;11.65;;;;;;;18.16;76.22;94751.00;5049746;28;20052;-79
2023/06/13 04:09:24;;;;;;;23.23;12.07;;;;;;;17.88;76.99;94758.06;5044620;28;20147;-79
2023/06/13 04:11:49;;;;;;;23.17;12.65;;;;;;;18.19;76.95;94776.41;5030845;28;20120;-79
2023/06/13 04:14:16;;;;;;;26.00;12.30;;;;;;;18.13;76.34;94773.94;5030817;28;20063;-79
2023/06/13 04:16:43;;;;;;;20.83;13.52;;;;;;;18.05;76.53;94742.59;5031051;28;20135;-79
2023/06/13 04:19:08;;;;;;;24.35;13.35;;;;;;;18.30;76.35;94783.72;5032380;28;20038;-80
2023/06/13 04:21:34;;;;;;;25.42;13.70;;;;;;;18.11;75.92;94754.69;5034423;28;20037;-79
2023/06/13 04:24:00;;;;;;;24.00;13.43;;;;;;;18.33;75.96;94775.00;5027575;28;20136;-79
2023/06/13 04:26:27;;;;;;;25.17;14.27;;;;;;;17.95;75.46;94734.97;5046595;28;20035;-79
2023/06/13 04:28:52;;;;;;;27.45;14.95;;;;;;;17.96;76.15;94762.56;5048993;28;20041;-79
2023/06/13 04:31:20;;;;;;;21.33;13.82;;;;;;;17.91;75.66;94762.78;5030311;28;20032;-80
2023/06/13 04:33:46;;;;;;;29.05;15.68;;;;;;;17.86;77.04;94750.34;5029631;28;20029;-80
2023/06/13 04:36:13;;;;;;;23.92;16.55;;;;;;;18.28;76.94;94790.53;5048734;28;20297;-80
2023/06/13 04:38:39;;;;;;;33.05;16.55;;;;;;;18.00;76.85;94731.31;5044009;28;20029;-80
2023/06/13 04:41:13;;;;;;;26.60;15.57;;;;;;;18.14;76.76;94737.16;5046303;28;20040;-80
2023/06/13 04:43:41;;;;;;;26.48;16.08;;;;;;;18.37;76.20;94789.34;5044983;28;20577;-80
2023/06/13 04:46:09;;;;;;;37.05;17.08;;;;;;;18.48;76.57;94790.47;5036114;28;20033;-80
2023/06/13 04:48:35;;;;;;;28.02;18.58;;;;;;;18.46;76.22;94768.53;5037498;28;20043;-79
2023/06/13 04:51:01;;;;;;;30.90;17.27;;;;;;;18.51;75.65;94762.19;5022257;28;20029;-80
2023/06/13 04:53:27;;;;;;;29.67;15.65;;;;;;;18.47;76.08;94758.59;5043497;28;20032;-80
2023/06/13 04:55:52;;;;;;;30.40;16.92;;;;;;;17.95;77.58;94782.47;5047519;28;20147;-79
2023/06/13 04:58:18;;;;;;;28.08;16.80;;;;;;;17.91;77.42;94758.22;5029977;28;20435;-79
2023/06/13 05:00:48;;;;;;;24.85;16.00;;;;;;;18.40;76.63;94787.88;5029000;28;20419;-80
2023/06/13 05:03:18;;;;;;;18.40;14.82;;;;;;;18.46;76.15;94800.00;5032339;28;20526;-79
2023/06/13 05:05:44;;;;;;;20.42;15.60;;;;;;;18.35;76.17;94767.41;5046206;28;20087;-80
2023/06/13 05:08:13;;;;;;;25.38;15.77;;;;;;;18.58;75.89;94772.41;5029464;28;20037;-80
2023/06/13 05:10:41;;;;;;;21.45;14.00;;;;;;;18.83;75.27;94809.72;5047799;28;20447;-80
2023/06/13 05:13:07;;;;;;;23.45;14.57;;;;;;;18.54;75.40;94755.38;5023067;28;20040;-80
2023/06/13 05:15:32;;;;;;;20.70;14.38;;;;;;;18.84;75.10;94795.16;5042506;28;20040;-80
2023/06/13 05:17:58;;;;;;;18.65;14.13;;;;;;;18.69;74.42;94742.06;5047375;28;20480;-80
2023/06/13 05:20:26;;;;;;;22.95;13.75;;;;;;;19.00;74.79;94768.41;5045491;28;20048;-80
2023/06/13 05:22:53;;;;;;;19.83;13.52;;;;;;;18.91;74.56;94737.41;5027725;28;20122;-80
2023/06/13 05:25:20;;;;;;;20.17;13.30;;;;;;;19.45;74.47;94803.22;5028639;28;20048;-80
2023/06/13 05:27:47;;;;;;;21.52;11.50;;;;;;;19.42;73.67;94778.91;5046785;28;20400;-79
2023/06/13 05:30:12;;;;;;;17.83;12.13;;;;;;;19.40;72.58;94765.00;5046912;28;20088;-80
2023/06/13 05:32:38;;;;;;;20.30;12.27;;;;;;;19.60;72.22;94791.81;5028517;28;20091;-80
2023/06/13 05:35:04;;;;;;;18.70;12.15;;;;;;;19.65;71.07;94805.00;5029408;28;20109;-80
2023/06/13 05:37:30;;;;;;;14.43;11.13;;;;;;;19.61;71.33;94792.56;5044909;28;20048;-80
2023/06/13 05:39:56;;;;;;;17.02;11.60;;;;;;;19.71;71.35;94807.47;5013777;28;20131;-80
2023/06/13 05:42:21;;;;;;;18.08;11.48;;;;;;;19.54;71.61;94762.78;5019098;28;20033;-80
2023/06/13 05:44:47;;;;;;;19.90;11.90;;;;;;;19.75;71.53;94784.94;5052288;28;20028;-80
2023/06/13 05:47:12;;;;;;;22.30;11.13;;;;;;;19.83;71.39;94785.94;5034770;28;20098;-80
2023/06/13 05:49:38;;;;;;;22.15;11.75;;;;;;;19.62;71.01;94746.50;5044183;28;20535;-80
2023/06/13 05:52:03;;;;;;;20.33;10.50;;;;;;;19.72;70.46;94747.16;5015139;28;20099;-80
2023/06/13 05:54:29;;;;;;;17.30;10.68;;;;;;;19.93;69.20;94788.13;5014478;28;20045;-80
2023/06/13 05:56:54;;;;;;;16.50;10.50;;;;;;;19.82;68.60;94760.91;5045286;28;20041;-80
2023/06/13 05:59:20;;;;;;;18.42;12.02;;;;;;;20.16;68.39;94813.38;5053018;28;20107;-80
2023/06/13 06:01:46;;;;;;;16.75;10.48;;;;;;;20.09;68.54;94783.56;5052612;28;20037;-80
2023/06/13 06:04:12;;;;;;;16.33;10.50;;;;;;;19.81;68.57;94727.06;5033360;28;20033;-80
2023/06/13 06:06:37;;;;;;;15.30;10.00;;;;;;;20.33;68.83;94793.47;5033333;28;20057;-80
2023/06/13 06:09:03;;;;;;;13.13;9.02;;;;;;;20.51;68.66;94802.03;5034579;28;20037;-80
2023/06/13 06:11:31;;;;;;;13.00;9.25;;;;;;;20.23;67.58;94754.34;5052937;28;20403;-80
2023/06/13 06:13:56;;;;;;;15.65;9.32;;;;;;;20.45;67.81;94774.56;5052637;28;20419;-80
2023/06/13 06:16:22;;;;;;;14.98;8.57;;;;;;;20.69;67.96;94793.28;5034753;28;20029;-80
2023/06/13 06:18:48;;;;;;;16.30;8.98;;;;;;;20.65;67.92;94781.66;5048853;28;20574;-80
2023/06/13 06:21:14;;;;;;;11.93;8.57;;;;;;;20.64;67.42;94779.28;5037940;28;20104;-79
2023/06/13 06:23:42;;;;;;;10.68;9.30;;;;;;;20.75;67.62;94769.56;5033319;28;20036;-79
2023/06/13 06:26:08;;;;;;;13.75;9.57;;;;;;;21.14;67.69;94805.53;5051963;28;20083;-79
2023/06/13 06:28:33;;;;;;;9.68;8.00;;;;;;;21.21;66.83;94805.00;5050868;28;20032;-79
2023/06/13 06:31:00;;;;;;;13.98;8.20;;;;;;;20.90;66.01;94732.97;5033748;28;20017;-79
2023/06/13 06:33:25;;;;;;;9.48;6.22;;;;;;;21.18;65.03;94777.59;5051491;28;20033;-79
2023/06/13 06:35:52;;;;;;;11.90;6.88;;;;;;;21.33;64.33;94767.91;5039113;28;20036;-79
2023/06/13 06:38:18;;;;;;;16.05;7.68;;;;;;;21.40;63.83;94776.16;5045952;28;20114;-80
2023/06/13 06:40:43;;;;;;;14.02;7.75;;;;;;;21.02;63.98;94700.50;5048457;28;20029;-79
2023/06/13 06:43:08;;;;;;;9.60;6.22;;;;;;;21.70;63.22;94783.72;5027336;28;20064;-79
2023/06/13 06:45:34;;;;;;;9.60;6.97;;;;;;;21.50;62.47;94750.56;5032062;28;20461;-78
2023/06/13 06:48:01;;;;;;;8.63;6.38;;;;;;;21.59;61.75;94737.63;5030139;28;20028;-79
2023/06/13 06:50:27;;;;;;;10.98;6.43;;;;;;;21.74;61.51;94763.75;5028005;28;20508;-80
2023/06/13 06:52:52;;;;;;;12.70;6.75;;;;;;;21.91;60.74;94768.75;5042586;28;20118;-80
2023/06/13 06:55:18;;;;;;;9.52;6.45;;;;;;;22.07;61.33;94786.84;5030961;28;20025;-79
2023/06/13 06:57:43;;;;;;;11.00;6.13;;;;;;;22.09;61.50;94765.66;5046502;28;20043;-79
2023/06/13 07:00:13;;;;;;;14.05;6.00;;;;;;;22.37;61.13;94790.53;5013459;28;20078;-79
2023/06/13 07:02:39;;;;;;;7.97;5.30;;;;;;;22.15;60.65;94754.22;5031283;28;20033;-79
2023/06/13 07:05:05;;;;;;;14.60;6.10;;;;;;;22.39;60.17;94782.06;5026773;28;20120;-79
2023/06/13 07:07:32;;;;;;;12.20;5.50;;;;;;;22.26;59.52;94757.13;5035681;28;20057;-79
2023/06/13 07:09:58;;;;;;;9.98;5.60;;;;;;;22.15;58.99;94732.63;5048018;28;20032;-79
2023/06/13 07:12:23;;;;;;;8.10;5.30;;;;;;;22.32;59.87;94761.09;5043688;28;20418;-79
2023/06/13 07:14:49;;;;;;;8.93;5.10;;;;;;;22.44;60.06;94765.56;5021855;28;20116;-79
2023/06/13 07:17:15;;;;;;;13.95;5.65;;;;;;;22.62;60.01;94789.06;5025455;28;20495;-79
2023/06/13 07:19:40;;;;;;;8.63;5.15;;;;;;;22.38;59.43;94737.28;5021184;28;20147;-78
2023/06/13 07:22:05;;;;;;;10.10;5.60;;;;;;;22.61;58.84;94760.47;5045651;28;20454;-80
2023/06/13 07:24:31;;;;;;;6.30;4.97;;;;;;;22.87;58.99;94789.53;5027256;28;20040;-79
2023/06/13 07:26:56;;;;;;;12.25;5.88;;;;;;;22.53;57.99;94747.97;5014571;28;20068;-79
2023/06/13 07:29:22;;;;;;;8.23;4.80;;;;;;;22.23;59.19;94747.03;5027476;28;20627;-78
2023/06/13 07:31:48;;;;;;;4.85;4.35;;;;;;;22.63;58.13;94760.91;5026074;28;20103;-79
2023/06/13 07:34:13;;;;;;;16.13;5.22;;;;;;;22.54;57.98;94740.66;5045184;28;20499;-80
2023/06/13 07:36:38;;;;;;;8.52;5.18;;;;;;;22.22;58.86;94677.94;5040468;28;20048;-79
2023/06/13 07:39:13;;;;;;;7.85;5.50;;;;;;;22.74;59.81;94746.81;5047255;28;20033;-79
2023/06/13 07:41:39;;;;;;;7.22;4.25;;;;;;;22.84;59.31;94763.22;5043497;28;20029;-79
2023/06/13 07:44:05;;;;;;;7.15;4.85;;;;;;;22.40;58.38;94684.44;5047460;28;20041;-79
2023/06/13 07:46:30;;;;;;;9.65;4.55;;;;;;;22.74;58.28;94747.59;5030530;28;20533;-79
2023/06/13 07:48:56;;;;;;;7.85;4.80;;;;;;;23.08;58.43;94778.28;5030421;28;20068;-79
2023/06/13 07:51:21;;;;;;;5.97;4.25;;;;;;;23.06;57.78;94778.66;5031907;28;20039;-79
2023/06/13 07:53:47;;;;;;;12.35;4.80;;;;;;;22.79;57.93;94739.19;5049494;28;20063;-79
2023/06/13 07:56:12;;;;;;;7.00;4.38;;;;;;;22.82;57.68;94732.25;5047156;28;20083;-79
2023/06/13 07:58:38;;;;;;;10.88;4.72;;;;;;;22.81;56.36;94728.78;5049684;28;20090;-78
2023/06/13 08:01:04;;;;;;;4.32;3.72;;;;;;;23.03;56.24;94771.28;5026403;28;20104;-79
2023/06/13 08:03:30;;;;;;;6.97;4.15;;;;;;;22.96;55.96;94749.50;5030981;28;20075;-80
2023/06/13 08:05:55;;;;;;;10.77;3.95;;;;;;;22.79;56.66;94744.59;5040202;28;20080;-79
2023/06/13 08:08:21;;;;;;;5.93;4.45;;;;;;;22.83;56.54;94752.75;5046455;28;20040;-78
2023/06/13 08:10:46;;;;;;;7.80;4.25;;;;;;;22.91;56.08;94770.66;5046993;28;20117;-78
2023/06/13 08:13:12;;;;;;;7.38;4.75;;;;;;;22.59;56.56;94738.44;5048824;28;20077;-78
2023/06/13 08:15:37;;;;;;;9.05;5.22;;;;;;;22.62;56.28;94747.75;5045536;28;20104;-79
2023/06/13 08:18:03;;;;;;;7.35;5.30;;;;;;;22.44;56.50;94754.75;5048677;28;20063;-79
2023/06/13 08:20:28;;;;;;;8.35;5.20;;;;;;;21.48;59.49;94752.81;5047424;28;20024;-79
2023/06/13 08:22:55;;;;;;;7.75;5.20;;;;;;;21.78;59.56;94778.13;5047131;28;20032;-79
2023/06/13 08:25:20;;;;;;;10.68;5.40;;;;;;;21.74;60.01;94763.00;5047320;28;20126;-78
2023/06/13 08:27:46;;;;;;;10.07;5.28;;;;;;;21.81;61.36;94771.25;5023827;28;20428;-79
2023/06/13 08:30:13;;;;;;;16.45;7.82;;;;;;;21.80;63.49;94767.00;5045672;28;20472;-80
2023/06/13 08:32:41;;;;;;;20.27;8.35;;;;;;;21.50;66.01;94739.75;5045939;28;20079;-79
2023/06/13 08:35:07;;;;;;;43.78;12.50;;;;;;;21.25;71.38;94778.88;5043715;28;20033;-80
2023/06/13 08:37:32;;;;;;;51.85;14.48;;;;;;;20.22;71.52;94669.31;5011257;28;20029;-80
2023/06/13 08:39:58;;;;;;;26.80;11.38;;;;;;;20.41;73.47;94765.63;5028661;28;20522;-79
2023/06/13 08:42:25;;;;;;;25.67;10.27;;;;;;;19.91;76.73;94740.00;5044537;28;20381;-79
2023/06/13 08:44:51;;;;;;;24.83;10.85;;;;;;;20.27;78.03;94781.38;5027897;28;20427;-79
2023/06/13 08:47:18;;;;;;;33.33;12.82;;;;;;;20.07;78.76;94776.94;5047983;28;20039;-79
2023/06/13 08:49:48;;;;;;;25.92;11.10;;;;;;;19.99;79.10;94773.28;5027529;28;20033;-79
2023/06/13 08:52:15;;;;;;;16.45;10.45;;;;;;;19.54;79.44;94712.44;5048504;28;20243;-79
2023/06/13 08:54:43;;;;;;;19.35;11.95;;;;;;;19.87;80.87;94768.75;5024758;28;20049;-79
2023/06/13 08:57:16;;;;;;;20.92;11.68;;;;;;;19.92;81.98;94787.31;5038393;28;20038;-79
2023/06/13 08:59:46;;;;;;;18.48;11.80;;;;;;;19.47;81.86;94714.16;5030617;28;20496;-78
2023/06/13 09:02:18;;;;;;;18.17;11.98;;;;;;;19.91;82.47;94790.38;5029069;28;20037;-78
2023/06/13 09:04:45;;;;;;;18.88;12.75;;;;;;;19.55;83.27;94745.50;5029731;28;20044;-79
2023/06/13 09:07:12;;;;;;;16.92;11.50;;;;;;;19.96;83.68;94787.44;5047263;28;20091;-79
2023/06/13 09:09:39;;;;;;;16.05;12.32;;;;;;;20.06;83.58;94781.59;5047805;28;20037;-79
2023/06/13 09:12:07;;;;;;;15.52;9.93;;;;;;;19.99;82.97;94773.28;5047679;28;20033;-79
2023/06/13 09:14:32;;;;;;;14.40;10.93;;;;;;;19.84;82.99;94742.50;5049393;28;20091;-78
2023/06/13 09:16:58;;;;;;;13.15;10.32;;;;;;;19.64;82.99;94703.13;5022077;28;20144;-80
2023/06/13 09:19:24;;;;;;;13.88;11.07;;;;;;;20.22;83.05;94781.59;5033325;28;20037;-79
2023/06/13 09:21:50;;;;;;;17.33;12.48;;;;;;;20.23;83.00;94778.56;5025546;28;20047;-78
2023/06/13 09:24:16;;;;;;;18.35;10.95;;;;;;;20.22;82.25;94766.22;5044390;28;20102;-79
2023/06/13 09:26:41;;;;;;;15.80;11.45;;;;;;;20.38;81.69;94780.53;5033882;28;20029;-79
2023/06/13 09:29:07;;;;;;;14.32;10.02;;;;;;;20.42;80.97;94788.72;5050269;28;20033;-79
2023/06/13 09:31:37;;;;;;;15.73;11.13;;;;;;;20.28;80.33;94761.41;5015448;28;20031;-79
2023/06/13 09:34:03;;;;;;;15.65;10.13;;;;;;;20.33;80.45;94761.13;5021625;28;20048;-79
2023/06/13 09:36:28;;;;;;;17.17;11.98;;;;;;;20.48;80.07;94779.28;5032955;28;20436;-79
2023/06/13 09:38:54;;;;;;;19.45;12.10;;;;;;;20.41;79.33;94746.75;5032501;28;20028;-79
2023/06/13 09:41:20;;;;;;;20.23;12.45;;;;;;;20.41;78.95;94733.31;5029503;28;20049;-80
2023/06/13 09:43:46;;;;;;;16.60;11.73;;;;;;;20.81;78.33;94787.03;5042673;28;20043;-79
2023/06/13 09:46:14;;;;;;;16.83;10.85;;;;;;;20.80;78.57;94772.78;5030813;28;20040;-80
2023/06/13 09:48:45;;;;;;;12.88;10.95;;;;;;;20.83;78.81;94760.50;5023933;28;20144;-79
2023/06/13 09:51:13;;;;;;;17.27;12.80;;;;;;;21.00;79.10;94780.94;5048142;28;20175;-78
2023/06/13 09:53:39;;;;;;;18.80;12.73;;;;;;;20.61;78.56;94736.88;5047404;28;20048;-80
2023/06/13 09:56:09;;;;;;;18.02;11.25;;;;;;;21.02;78.54;94778.69;5044553;28;20361;-79
2023/06/13 09:58:38;;;;;;;15.75;11.27;;;;;;;21.10;77.64;94781.22;5027287;28;20178;-80
2023/06/13 10:01:03;;;;;;;19.05;11.57;;;;;;;21.11;77.66;94773.91;5046330;28;20187;-79
2023/06/13 10:03:30;;;;;;;14.70;11.70;;;;;;;21.03;77.90;94751.38;5025392;28;20258;-80
2023/06/13 10:06:00;;;;;;;18.50;12.15;;;;;;;21.02;78.93;94739.03;5042968;28;20455;-79
2023/06/13 10:08:26;;;;;;;13.13;10.40;;;;;;;21.00;79.08;94725.13;5045812;28;20064;-79
2023/06/13 10:10:53;;;;;;;13.77;10.23;;;;;;;21.23;79.13;94760.34;5045530;28;20071;-79
2023/06/13 10:13:24;;;;;;;14.07;9.93;;;;;;;21.29;78.55;94771.63;5043810;28;20033;-79
2023/06/13 10:15:52;;;;;;;12.85;9.82;;;;;;;21.26;78.18;94759.66;5030038;28;20059;-79
2023/06/13 10:18:21;;;;;;;15.90;10.52;;;;;;;20.93;77.44;94718.78;5049094;28;20441;-80
2023/06/13 10:20:49;;;;;;;13.15;10.38;;;;;;;21.36;76.74;94779.91;5027361;28;20119;-79
2023/06/13 10:23:21;;;;;;;21.75;10.27;;;;;;;21.11;76.41;94742.34;5051014;28;20021;-79
2023/06/13 10:25:53;;;;;;;13.32;10.55;;;;;;;21.24;76.27;94761.91;5034850;28;20118;-79
2023/06/13 10:28:18;;;;;;;15.48;10.95;;;;;;;21.35;76.08;94773.72;5029144;28;20128;-79
2023/06/13 10:31:17;;;;;;;14.80;11.00;;;;;;;21.40;76.81;94767.28;5038081;28;20178;-79
2023/06/13 10:33:57;;;;;;;16.33;12.30;;;;;;;21.15;77.64;94729.69;4999621;28;20048;-79
2023/06/13 10:36:46;;;;;;;14.95;10.75;;;;;;;21.23;78.79;94732.59;5046273;28;20465;-80
2023/06/13 10:39:30;;;;;;;17.50;11.05;;;;;;;21.54;78.35;94762.19;5027663;28;20036;-79
2023/06/13 10:42:36;;;;;;;17.17;10.43;;;;;;;21.53;76.92;94756.00;5047066;28;20063;-80
2023/06/13 10:45:16;;;;;;;13.93;9.95;;;;;;;21.40;76.54;94740.31;5048227;28;20119;-79
2023/06/13 10:47:41;;;;;;;15.68;11.10;;;;;;;21.58;76.81;94764.97;5024837;28;20029;-80
2023/06/13 10:50:08;;;;;;;19.38;11.35;;;;;;;21.45;76.97;94732.72;5045762;28;20387;-80
2023/06/13 10:52:34;;;;;;;14.82;10.65;;;;;;;21.35;76.59;94709.00;5041921;28;20119;-80
2023/06/13 10:55:01;;;;;;;18.50;11.20;;;;;;;21.58;76.83;94725.28;5029954;28;20028;-80
2023/06/13 10:57:49;;;;;;;12.95;11.00;;;;;;;21.86;77.32;94750.16;5048171;28;20032;-79
2023/06/13 11:00:28;;;;;;;13.35;10.65;;;;;;;21.80;76.71;94715.72;5018977;28;20021;-79
2023/06/13 11:03:21;;;;;;;12.40;8.82;;;;;;;22.09;76.51;94749.47;5042964;28;20095;-79
2023/06/13 11:05:50;;;;;;;16.15;8.15;;;;;;;22.01;75.19;94724.25;5037976;28;20106;-79
2023/06/13 11:08:21;;;;;;;10.45;7.78;;;;;;;22.22;75.39;94734.66;5030015;28;20504;-79
2023/06/13 11:10:48;;;;;;;14.32;7.15;;;;;;;22.19;73.72;94714.56;5048276;28;20155;-79
2023/06/13 11:13:23;;;;;;;12.52;7.72;;;;;;;22.29;72.95;94724.78;5029168;28;20033;-80
2023/06/13 11:16:31;;;;;;;15.02;7.22;;;;;;;22.47;70.58;94746.72;5048320;28;20106;-80
2023/06/13 11:18:56;;;;;;;11.38;7.90;;;;;;;22.73;69.60;94756.84;5019181;28;20459;-80
2023/06/13 11:21:22;;;;;;;12.43;7.85;;;;;;;22.84;69.46;94748.91;5044829;28;20068;-81
2023/06/13 11:23:53;;;;;;;12.20;7.43;;;;;;;22.85;69.36;94724.22;5044020;28;20037;-81
2023/06/13 11:26:20;;;;;;;12.52;8.73;;;;;;;22.92;68.99;94708.13;5049287;28;20040;-80